Time;durP1;ratioP1;P1;durP2;ratioP2;P2;SDS_P1;SDS_P2;PMS_P1;PMS_P2;Temp;Humidity;BMP_temperature;BMP_pressure;BME280_temperature;BME280_humidity;BME280_pressure;Samples;Min_cycle;Max_cycle;Signal;HPM_P1;HPM_P2
2023/07/13 00:02:02;;;;;;;13.30;10.13;;;;;;;;;;10457114;28;20814;-83
2023/07/13 00:07:03;;;;;;;11.23;8.60;;;;;;;;;;10450716;28;20052;-83
2023/07/13 00:12:04;;;;;;;15.27;9.20;;;;;;;;;;10457097;28;20110;-83
2023/07/13 00:17:05;;;;;;;16.50;9.52;;;;;;;;;;10457123;28;20102;-82
2023/07/13 00:22:06;;;;;;;10.35;7.82;;;;;;;;;;10450383;28;20451;-82
2023/07/13 00:27:07;;;;;;;12.90;9.27;;;;;;;;;;10478887;22;20052;-82
2023/07/13 00:32:09;;;;;;;10.88;8.20;;;;;;;;;;10496389;28;20421;-82
2023/07/13 00:37:11;;;;;;;13.45;9.60;;;;;;;;;;10491113;28;20803;-82
2023/07/13 00:42:12;;;;;;;12.55;8.75;;;;;;;;;;10490149;28;20582;-82
2023/07/13 00:47:13;;;;;;;11.82;9.32;;;;;;;;;;10499807;28;20115;-82
2023/07/13 00:52:14;;;;;;;11.98;9.00;;;;;;;;;;10489489;28;20039;-83
2023/07/13 00:57:17;;;;;;;10.77;7.90;;;;;;;;;;10493479;28;20383;-81
2023/07/13 01:02:18;;;;;;;11.18;8.98;;;;;;;;;;10489207;28;20052;-81
2023/07/13 01:07:19;;;;;;;17.35;10.38;;;;;;;;;;10489413;28;20040;-82
2023/07/13 01:12:20;;;;;;;16.00;10.35;;;;;;;;;;10492922;28;20086;-81
2023/07/13 01:17:21;;;;;;;18.90;11.55;;;;;;;;;;10490365;28;20036;-81
2023/07/13 01:22:26;;;;;;;16.17;11.25;;;;;;;;;;10495230;28;20028;-82
2023/07/13 01:27:27;;;;;;;16.27;11.45;;;;;;;;;;10490906;28;21167;-81
2023/07/13 01:32:31;;;;;;;17.48;11.57;;;;;;;;;;10488955;28;20033;-82
2023/07/13 01:37:33;;;;;;;15.20;10.82;;;;;;;;;;10499126;28;20024;-82
2023/07/13 01:42:34;;;;;;;15.25;11.60;;;;;;;;;;10488722;28;20051;-81
2023/07/13 01:47:35;;;;;;;18.10;12.55;;;;;;;;;;10494593;28;20043;-82
2023/07/13 01:52:36;;;;;;;19.35;12.50;;;;;;;;;;10486716;28;20066;-82
2023/07/13 01:57:37;;;;;;;13.93;11.63;;;;;;;;;;10489303;28;20119;-82
2023/07/13 02:02:38;;;;;;;14.23;10.27;;;;;;;;;;10489010;28;20776;-83
2023/07/13 02:07:40;;;;;;;14.32;10.20;;;;;;;;;;10487322;28;20068;-82
2023/07/13 02:12:41;;;;;;;18.48;11.60;;;;;;;;;;10486925;28;20041;-82
2023/07/13 02:17:42;;;;;;;16.92;12.65;;;;;;;;;;10485380;28;20020;-82
2023/07/13 02:22:43;;;;;;;15.52;11.73;;;;;;;;;;10485543;28;20472;-83
2023/07/13 02:27:44;;;;;;;19.55;12.65;;;;;;;;;;10487578;28;20061;-82
2023/07/13 02:32:45;;;;;;;15.90;11.85;;;;;;;;;;10484311;28;20024;-81
2023/07/13 02:37:46;;;;;;;21.05;14.00;;;;;;;;;;10494494;28;20029;-82
2023/07/13 02:42:47;;;;;;;18.25;13.52;;;;;;;;;;10548087;22;20055;-82
2023/07/13 02:47:48;;;;;;;20.33;15.00;;;;;;;;;;10531115;28;20506;-81
2023/07/13 02:52:49;;;;;;;19.35;13.20;;;;;;;;;;10557004;28;20134;-82
2023/07/13 02:57:50;;;;;;;19.42;13.38;;;;;;;;;;10552437;28;20041;-81
2023/07/13 03:02:52;;;;;;;17.30;13.13;;;;;;;;;;10541200;28;20707;-82
2023/07/13 03:07:53;;;;;;;18.00;12.77;;;;;;;;;;10547122;28;20107;-82
2023/07/13 03:12:54;;;;;;;21.35;14.95;;;;;;;;;;10513427;28;20484;-83
2023/07/13 03:17:55;;;;;;;22.92;13.35;;;;;;;;;;10524878;28;20036;-83
2023/07/13 03:22:56;;;;;;;21.60;15.10;;;;;;;;;;10516430;28;20044;-83
2023/07/13 03:27:57;;;;;;;18.13;12.40;;;;;;;;;;10516162;28;20503;-84
2023/07/13 03:32:58;;;;;;;17.30;13.68;;;;;;;;;;10522579;28;20114;-83
2023/07/13 03:38:00;;;;;;;17.92;12.23;;;;;;;;;;10530165;28;20485;-84
2023/07/13 03:43:02;;;;;;;18.75;12.75;;;;;;;;;;10525370;22;20402;-84
2023/07/13 03:48:03;;;;;;;21.98;13.90;;;;;;;;;;10521806;28;20128;-84
2023/07/13 03:53:04;;;;;;;17.45;12.80;;;;;;;;;;10491592;28;20031;-84
2023/07/13 03:58:26;;;;;;;17.63;12.90;;;;;;;;;;10529576;28;20032;-85
2023/07/13 04:03:28;;;;;;;22.58;14.15;;;;;;;;;;10508360;28;20020;-85
2023/07/13 04:08:30;;;;;;;28.30;15.88;;;;;;;;;;10486954;28;20036;-86
2023/07/13 04:13:31;;;;;;;27.58;14.60;;;;;;;;;;10505442;28;20468;-83
2023/07/13 04:18:32;;;;;;;25.05;14.77;;;;;;;;;;10514221;28;20052;-83
2023/07/13 04:23:33;;;;;;;22.65;11.57;;;;;;;;;;10498137;28;20288;-83
2023/07/13 04:28:34;;;;;;;22.45;13.27;;;;;;;;;;10495611;28;20071;-83
2023/07/13 04:33:35;;;;;;;24.20;14.27;;;;;;;;;;10522603;28;20758;-82
2023/07/13 04:38:37;;;;;;;24.88;14.55;;;;;;;;;;10527839;28;20056;-81
2023/07/13 04:43:38;;;;;;;19.83;13.80;;;;;;;;;;10510450;28;20027;-81
2023/07/13 04:48:39;;;;;;;21.05;13.57;;;;;;;;;;10494146;28;20047;-81
2023/07/13 04:53:40;;;;;;;17.73;13.55;;;;;;;;;;10507582;28;20448;-81
2023/07/13 04:58:41;;;;;;;19.20;13.63;;;;;;;;;;10531466;28;20039;-81
2023/07/13 05:03:42;;;;;;;18.77;13.98;;;;;;;;;;10512606;28;20387;-82
2023/07/13 05:08:43;;;;;;;18.05;13.57;;;;;;;;;;10493750;28;20032;-82
2023/07/13 05:13:44;;;;;;;18.50;13.80;;;;;;;;;;10509714;28;20464;-83
2023/07/13 05:18:45;;;;;;;20.95;15.57;;;;;;;;;;10495648;28;20060;-82
2023/07/13 05:23:46;;;;;;;22.38;15.85;;;;;;;;;;10503689;28;20033;-82
2023/07/13 05:28:47;;;;;;;20.08;14.60;;;;;;;;;;10482427;28;20043;-82
2023/07/13 05:33:48;;;;;;;16.08;12.02;;;;;;;;;;10490369;28;20051;-88
2023/07/13 05:38:49;;;;;;;12.30;9.43;;;;;;;;;;10466139;28;20056;-89
2023/07/13 05:43:50;;;;;;;10.77;8.40;;;;;;;;;;10529200;28;20027;-89
2023/07/13 05:48:51;;;;;;;10.70;8.25;;;;;;;;;;10504685;28;20838;-89
2023/07/13 05:53:52;;;;;;;14.55;8.20;;;;;;;;;;10489365;28;20502;-88
2023/07/13 05:58:53;;;;;;;11.63;8.52;;;;;;;;;;10506936;28;20146;-89
2023/07/13 06:03:54;;;;;;;10.43;7.68;;;;;;;;;;10504783;28;20601;-89
2023/07/13 06:08:55;;;;;;;7.78;5.95;;;;;;;;;;10509715;28;20131;-90
2023/07/13 06:13:56;;;;;;;8.70;6.38;;;;;;;;;;10528265;28;20028;-89
2023/07/13 06:18:57;;;;;;;9.95;6.60;;;;;;;;;;10509551;28;20067;-90
2023/07/13 06:23:58;;;;;;;9.85;6.03;;;;;;;;;;10509735;28;20123;-89
2023/07/13 06:28:59;;;;;;;7.72;6.10;;;;;;;;;;10509194;28;20074;-89
2023/07/13 06:34:00;;;;;;;7.65;5.57;;;;;;;;;;10528283;28;20127;-90
2023/07/13 06:39:01;;;;;;;7.18;5.35;;;;;;;;;;10509114;28;20135;-88
2023/07/13 06:44:02;;;;;;;5.50;4.78;;;;;;;;;;10528350;28;20016;-88
2023/07/13 06:49:03;;;;;;;7.10;5.53;;;;;;;;;;10509462;28;20089;-88
2023/07/13 06:54:05;;;;;;;6.03;4.38;;;;;;;;;;10508431;28;20539;-88
2023/07/13 06:59:06;;;;;;;8.48;4.80;;;;;;;;;;10527495;28;20067;-87
2023/07/13 07:04:07;;;;;;;5.70;4.10;;;;;;;;;;10527114;28;20051;-88
2023/07/13 07:09:09;;;;;;;6.55;4.97;;;;;;;;;;10529936;28;20566;-88
2023/07/13 07:14:10;;;;;;;7.63;4.63;;;;;;;;;;10517505;28;20038;-87
2023/07/13 07:19:11;;;;;;;6.65;4.60;;;;;;;;;;10516690;28;20040;-86
2023/07/13 07:24:12;;;;;;;9.38;4.80;;;;;;;;;;10534740;28;20024;-87
2023/07/13 07:29:13;;;;;;;4.70;3.13;;;;;;;;;;10476433;28;20395;-88
2023/07/13 07:34:14;;;;;;;5.88;3.38;;;;;;;;;;10515933;28;20067;-86
2023/07/13 07:39:16;;;;;;;5.22;4.40;;;;;;;;;;10492619;28;20066;-88
2023/07/13 07:44:17;;;;;;;5.85;4.03;;;;;;;;;;10526578;28;20025;-87
2023/07/13 07:49:18;;;;;;;6.38;3.55;;;;;;;;;;10496495;28;20047;-87
2023/07/13 07:54:19;;;;;;;9.77;4.72;;;;;;;;;;10497252;28;20494;-88
2023/07/13 07:59:20;;;;;;;6.50;4.35;;;;;;;;;;10520042;28;20024;-89
2023/07/13 08:04:21;;;;;;;6.85;4.32;;;;;;;;;;10503783;28;20040;-89
2023/07/13 08:09:22;;;;;;;7.50;5.05;;;;;;;;;;10491400;28;20418;-89
2023/07/13 08:14:23;;;;;;;8.98;5.13;;;;;;;;;;10491697;28;20032;-88
2023/07/13 08:19:24;;;;;;;5.50;4.18;;;;;;;;;;10485210;28;20080;-89
2023/07/13 08:24:25;;;;;;;7.18;4.55;;;;;;;;;;10497247;28;20038;-88
2023/07/13 08:29:26;;;;;;;9.63;5.63;;;;;;;;;;10495263;28;20556;-89
2023/07/13 08:34:27;;;;;;;7.68;5.47;;;;;;;;;;10532004;28;20035;-89
2023/07/13 08:39:28;;;;;;;8.63;5.68;;;;;;;;;;10496383;28;20104;-89
2023/07/13 08:44:45;;;;;;;5.88;4.20;;;;;;;;;;10504626;28;20519;-89
2023/07/13 08:49:46;;;;;;;6.70;4.53;;;;;;;;;;10486350;28;20039;-88
2023/07/13 08:54:50;;;;;;;5.28;3.35;;;;;;;;;;10481988;28;20472;-89
2023/07/13 08:59:51;;;;;;;6.75;4.57;;;;;;;;;;10501335;28;20039;-87
2023/07/13 09:05:04;;;;;;;5.63;4.03;;;;;;;;;;10530223;28;20032;-86
2023/07/13 09:10:17;;;;;;;6.20;4.03;;;;;;;;;;10510301;28;20051;-88
2023/07/13 09:15:24;;;;;;;10.13;4.75;;;;;;;;;;10509724;28;20020;-87
2023/07/13 09:20:44;;;;;;;7.00;5.30;;;;;;;;;;10495860;28;20042;-90
2023/07/13 09:25:46;;;;;;;7.38;5.35;;;;;;;;;;10492019;28;20032;-88
2023/07/13 09:30:54;;;;;;;7.32;5.75;;;;;;;;;;10502670;28;20048;-87
2023/07/13 09:35:58;;;;;;;6.82;5.90;;;;;;;;;;10509649;28;20017;-90
2023/07/13 09:41:12;;;;;;;7.93;6.50;;;;;;;;;;10470384;28;20053;-89
2023/07/13 09:46:22;;;;;;;9.48;5.95;;;;;;;;;;10484583;28;20532;-90
2023/07/13 09:51:26;;;;;;;12.93;5.72;;;;;;;;;;10501226;28;20071;-94
2023/07/13 09:56:29;;;;;;;7.73;5.27;;;;;;;;;;10500465;28;20028;-89
2023/07/13 10:01:35;;;;;;;10.13;4.70;;;;;;;;;;10473787;28;20028;-88
2023/07/13 10:06:36;;;;;;;6.85;3.67;;;;;;;;;;10508871;28;20059;-95
2023/07/13 10:11:41;;;;;;;7.80;2.70;;;;;;;;;;10459350;28;20028;-93
2023/07/13 10:16:46;;;;;;;4.57;2.65;;;;;;;;;;10398683;28;20628;-92
2023/07/13 10:21:48;;;;;;;;;;;;;;;;;;10381717;28;20129;-91
2023/07/13 10:27:04;;;;;;;6.25;2.50;;;;;;;;;;10397579;28;20008;-88
2023/07/13 10:32:12;;;;;;;5.38;2.85;;;;;;;;;;10372504;28;20154;-90
2023/07/13 10:37:36;;;;;;;7.80;4.40;;;;;;;;;;10372053;28;20064;-89
2023/07/13 10:42:41;;;;;;;6.10;4.22;;;;;;;;;;10380019;28;20139;-90
2023/07/13 10:47:43;;;;;;;10.15;4.60;;;;;;;;;;10445707;28;20080;-86
2023/07/13 10:52:50;;;;;;;7.40;5.13;;;;;;;;;;10466916;28;20396;-86
2023/07/13 10:57:52;;;;;;;9.27;5.10;;;;;;;;;;10484007;28;20020;-87
2023/07/13 11:03:00;;;;;;;11.90;7.35;;;;;;;;;;10496381;28;20042;-88
2023/07/13 11:08:13;;;;;;;10.57;6.53;;;;;;;;;;10467529;28;20033;-87
2023/07/13 11:13:50;;;;;;;12.70;7.75;;;;;;;;;;10485334;28;20743;-87
2023/07/13 11:18:52;;;;;;;12.23;7.05;;;;;;;;;;10341378;28;20044;-87
2023/07/13 11:23:57;;;;;;;10.52;7.85;;;;;;;;;;10467046;28;20036;-89
2023/07/13 11:28:58;;;;;;;10.13;7.53;;;;;;;;;;10466335;28;20044;-89
2023/07/13 11:34:00;;;;;;;15.80;9.75;;;;;;;;;;10482596;28;20035;-87
2023/07/13 11:39:03;;;;;;;19.95;11.10;;;;;;;;;;10462009;28;20732;-87
2023/07/13 11:44:14;;;;;;;23.77;12.07;;;;;;;;;;10461722;28;20020;-87
2023/07/13 11:49:16;;;;;;;19.48;10.05;;;;;;;;;;10498416;23;20048;-86
2023/07/13 11:54:23;;;;;;;16.27;10.25;;;;;;;;;;10484652;28;20693;-88
2023/07/13 11:59:24;;;;;;;15.10;10.70;;;;;;;;;;10490868;28;20107;-87
2023/07/13 12:04:27;;;;;;;14.70;9.50;;;;;;;;;;10489953;28;20070;-88
2023/07/13 12:09:29;;;;;;;21.05;11.05;;;;;;;;;;10489285;28;20704;-89
2023/07/13 12:14:30;;;;;;;12.18;7.85;;;;;;;;;;10528092;28;20043;-87
2023/07/13 12:19:31;;;;;;;16.33;8.95;;;;;;;;;;10529936;28;20036;-87
2023/07/13 12:24:33;;;;;;;10.25;6.72;;;;;;;;;;10530857;28;20032;-89
2023/07/13 12:29:40;;;;;;;8.48;6.05;;;;;;;;;;10528792;28;20031;-90
2023/07/13 12:34:52;;;;;;;7.97;5.82;;;;;;;;;;10530012;28;20036;-88
2023/07/13 12:39:53;;;;;;;8.30;5.80;;;;;;;;;;10529430;28;20031;-87
2023/07/13 12:44:55;;;;;;;8.27;5.47;;;;;;;;;;10529996;28;20035;-87
2023/07/13 12:50:01;;;;;;;4.55;3.50;;;;;;;;;;10531126;28;20139;-88
2023/07/13 12:55:14;;;;;;;5.93;4.28;;;;;;;;;;10530010;28;20428;-87
2023/07/13 13:00:24;;;;;;;4.53;3.30;;;;;;;;;;10527309;28;20154;-86
2023/07/13 13:05:29;;;;;;;5.43;3.70;;;;;;;;;;10528715;28;20424;-87
2023/07/13 13:10:30;;;;;;;3.75;3.45;;;;;;;;;;10530318;28;20043;-87
2023/07/13 13:15:32;;;;;;;6.10;4.18;;;;;;;;;;10528578;28;20059;-85
2023/07/13 13:20:33;;;;;;;3.58;2.90;;;;;;;;;;10527325;28;20119;-88
2023/07/13 13:25:34;;;;;;;3.58;3.15;;;;;;;;;;10529822;28;20471;-87
2023/07/13 13:30:35;;;;;;;4.72;3.88;;;;;;;;;;10528434;28;20044;-88
2023/07/13 13:35:36;;;;;;;8.82;7.88;;;;;;;;;;10540153;28;20042;-87
2023/07/13 13:40:37;;;;;;;9.88;7.57;;;;;;;;;;10529133;28;20035;-88
2023/07/13 13:45:39;;;;;;;4.93;4.43;;;;;;;;;;10527174;28;20523;-92
2023/07/13 13:50:40;;;;;;;3.35;3.05;;;;;;;;;;10536308;28;20063;-94
2023/07/13 13:55:41;;;;;;;6.60;2.97;;;;;;;;;;10535665;28;20122;-88
2023/07/13 14:00:45;;;;;;;3.92;2.40;;;;;;;;;;10548576;28;20408;-88
2023/07/13 14:05:47;;;;;;;3.38;2.75;;;;;;;;;;10530413;28;20020;-90
2023/07/13 14:10:50;;;;;;;3.20;2.50;;;;;;;;;;10538653;28;20503;-86
2023/07/13 14:15:51;;;;;;;3.20;2.60;;;;;;;;;;10544110;28;20085;-92
2023/07/13 14:20:52;;;;;;;2.78;2.58;;;;;;;;;;10555434;28;20423;-88
2023/07/13 14:25:54;;;;;;;3.75;2.92;;;;;;;;;;10568563;28;20023;-88
2023/07/13 14:30:55;;;;;;;3.72;2.80;;;;;;;;;;10548026;28;20039;-91
2023/07/13 14:35:56;;;;;;;2.50;2.30;;;;;;;;;;10525869;28;20024;-87
2023/07/13 14:40:57;;;;;;;3.50;2.63;;;;;;;;;;10540823;28;20035;-87
2023/07/13 14:45:59;;;;;;;3.42;2.35;;;;;;;;;;10521981;28;20057;-86
2023/07/13 14:51:00;;;;;;;2.70;2.50;;;;;;;;;;10524156;28;20085;-86
2023/07/13 14:56:01;;;;;;;2.80;2.50;;;;;;;;;;10524756;28;20071;-87
2023/07/13 15:01:02;;;;;;;4.60;2.55;;;;;;;;;;10525868;28;20541;-86
2023/07/13 15:06:04;;;;;;;2.70;2.47;;;;;;;;;;10525856;28;20032;-85
2023/07/13 15:11:05;;;;;;;4.88;2.83;;;;;;;;;;10525383;28;20044;-85
2023/07/13 15:16:22;;;;;;;5.38;3.45;;;;;;;;;;10525853;28;20437;-88
2023/07/13 15:21:24;;;;;;;3.47;3.17;;;;;;;;;;10526850;28;20028;-86
2023/07/13 15:26:25;;;;;;;4.25;3.00;;;;;;;;;;10529638;28;20035;-87
2023/07/13 15:31:28;;;;;;;3.88;3.47;;;;;;;;;;10557075;28;20038;-93
2023/07/13 15:36:29;;;;;;;4.13;3.72;;;;;;;;;;10538720;28;20118;-87
2023/07/13 15:41:32;;;;;;;4.35;3.85;;;;;;;;;;10529232;28;20043;-86
2023/07/13 15:46:33;;;;;;;4.55;3.30;;;;;;;;;;10552162;28;20083;-86
2023/07/13 15:51:35;;;;;;;5.65;3.97;;;;;;;;;;10548373;28;20572;-84
2023/07/13 15:56:40;;;;;;;5.57;4.13;;;;;;;;;;10546409;28;20024;-85
2023/07/13 16:01:41;;;;;;;4.80;3.93;;;;;;;;;;10538684;28;20131;-85
2023/07/13 16:06:43;;;;;;;4.68;4.25;;;;;;;;;;10567590;28;20377;-85
2023/07/13 16:11:44;;;;;;;5.93;4.30;;;;;;;;;;10543734;28;20031;-86
2023/07/13 16:16:45;;;;;;;5.78;3.95;;;;;;;;;;10558495;28;20505;-85
2023/07/13 16:21:48;;;;;;;7.03;4.53;;;;;;;;;;10534527;28;20031;-84
2023/07/13 16:26:49;;;;;;;4.80;4.30;;;;;;;;;;10531677;28;20047;-85
2023/07/13 16:31:57;;;;;;;4.30;3.72;;;;;;;;;;10531862;28;20039;-85
2023/07/13 16:36:58;;;;;;;5.00;3.17;;;;;;;;;;10526386;28;20024;-84
2023/07/13 16:41:59;;;;;;;4.35;3.38;;;;;;;;;;10530423;28;20030;-86
2023/07/13 16:47:01;;;;;;;4.45;3.38;;;;;;;;;;10531379;28;20040;-85
2023/07/13 16:52:02;;;;;;;3.25;2.95;;;;;;;;;;10527469;28;20089;-85
2023/07/13 16:57:04;;;;;;;3.33;3.00;;;;;;;;;;10531048;28;20115;-86
2023/07/13 17:02:22;;;;;;;3.65;2.83;;;;;;;;;;10533132;28;20035;-85
2023/07/13 17:07:23;;;;;;;3.75;3.45;;;;;;;;;;10528008;28;20043;-86
2023/07/13 17:12:24;;;;;;;3.75;3.20;;;;;;;;;;10537297;28;20020;-85
2023/07/13 17:17:34;;;;;;;3.22;2.80;;;;;;;;;;10528284;28;20118;-84
2023/07/13 17:22:35;;;;;;;4.30;3.20;;;;;;;;;;10518353;28;20024;-85
2023/07/13 17:27:36;;;;;;;4.03;3.22;;;;;;;;;;10546481;28;20044;-85
2023/07/13 17:32:37;;;;;;;3.47;3.17;;;;;;;;;;10539116;28;20043;-83
2023/07/13 17:37:39;;;;;;;4.28;3.55;;;;;;;;;;10525871;28;20028;-85
2023/07/13 17:42:40;;;;;;;3.78;3.40;;;;;;;;;;10529068;28;20160;-85
2023/07/13 17:47:41;;;;;;;5.22;3.38;;;;;;;;;;10527236;28;20110;-82
2023/07/13 17:52:42;;;;;;;4.95;3.45;;;;;;;;;;10528755;28;20558;-83
2023/07/13 17:57:48;;;;;;;5.22;4.00;;;;;;;;;;10528652;28;20063;-85
2023/07/13 18:02:49;;;;;;;4.88;3.95;;;;;;;;;;10529218;28;20093;-85
2023/07/13 18:07:50;;;;;;;4.93;3.83;;;;;;;;;;10529355;28;20051;-84
2023/07/13 18:12:52;;;;;;;4.90;4.38;;;;;;;;;;10528851;28;20032;-84
2023/07/13 18:17:53;;;;;;;8.30;4.55;;;;;;;;;;10526928;28;20467;-82
2023/07/13 18:22:54;;;;;;;5.40;4.75;;;;;;;;;;10528314;28;20110;-84
2023/07/13 18:27:55;;;;;;;5.53;4.88;;;;;;;;;;10518564;28;20126;-84
2023/07/13 18:32:57;;;;;;;6.07;5.47;;;;;;;;;;10541704;28;20032;-84
2023/07/13 18:37:58;;;;;;;6.20;4.60;;;;;;;;;;10544538;28;20032;-83
2023/07/13 18:43:00;;;;;;;5.72;4.72;;;;;;;;;;10542009;28;20122;-84
2023/07/13 18:48:02;;;;;;;7.15;4.80;;;;;;;;;;10545060;28;20051;-83
2023/07/13 18:53:04;;;;;;;7.10;5.45;;;;;;;;;;10525806;28;20032;-83
2023/07/13 18:58:05;;;;;;;5.72;5.13;;;;;;;;;;10536837;28;20059;-84
2023/07/13 19:03:15;;;;;;;8.02;5.93;;;;;;;;;;10527324;28;20429;-85
2023/07/13 19:08:20;;;;;;;9.07;5.97;;;;;;;;;;10516714;28;20047;-83
2023/07/13 19:13:22;;;;;;;10.13;7.60;;;;;;;;;;10542512;28;20024;-83
2023/07/13 19:18:24;;;;;;;11.48;7.63;;;;;;;;;;10537690;28;20024;-83
2023/07/13 19:23:36;;;;;;;12.65;8.15;;;;;;;;;;10537949;28;20028;-84
2023/07/13 19:28:39;;;;;;;11.10;8.15;;;;;;;;;;10543628;28;20096;-84
2023/07/13 19:33:40;;;;;;;12.35;8.18;;;;;;;;;;10539539;28;20084;-83
2023/07/13 19:38:41;;;;;;;11.32;8.45;;;;;;;;;;10540534;28;20077;-83
2023/07/13 19:43:43;;;;;;;10.15;8.23;;;;;;;;;;10553446;28;20031;-83
2023/07/13 19:48:44;;;;;;;11.60;8.32;;;;;;;;;;10526388;28;20376;-84
2023/07/13 19:53:45;;;;;;;9.23;7.93;;;;;;;;;;10536013;28;20024;-83
2023/07/13 19:58:46;;;;;;;11.80;9.10;;;;;;;;;;10540103;28;20036;-83
2023/07/13 20:03:47;;;;;;;9.30;7.57;;;;;;;;;;10527900;28;20066;-83
2023/07/13 20:08:48;;;;;;;8.38;7.18;;;;;;;;;;10561520;28;20031;-83
2023/07/13 20:13:49;;;;;;;10.82;7.43;;;;;;;;;;10529054;28;20037;-83
2023/07/13 20:18:50;;;;;;;10.75;7.80;;;;;;;;;;10537129;28;20038;-83
2023/07/13 20:23:51;;;;;;;12.85;8.95;;;;;;;;;;10559735;28;20039;-83
2023/07/13 20:28:52;;;;;;;13.60;9.77;;;;;;;;;;10542765;28;20039;-82
2023/07/13 20:33:53;;;;;;;15.23;10.45;;;;;;;;;;10535666;28;20028;-83
2023/07/13 20:38:54;;;;;;;15.70;11.65;;;;;;;;;;10526844;28;20437;-83
2023/07/13 20:43:55;;;;;;;14.25;10.68;;;;;;;;;;10547395;27;20764;-83
2023/07/13 20:48:56;;;;;;;14.45;10.52;;;;;;;;;;10535727;28;20138;-83
2023/07/13 20:53:58;;;;;;;11.35;8.70;;;;;;;;;;10573646;28;20577;-83
2023/07/13 20:58:59;;;;;;;11.07;7.60;;;;;;;;;;10549326;28;20024;-83
2023/07/13 21:04:01;;;;;;;11.52;9.15;;;;;;;;;;10542212;28;20035;-83
2023/07/13 21:09:02;;;;;;;10.82;8.60;;;;;;;;;;10568727;28;20047;-83
2023/07/13 21:14:03;;;;;;;11.27;8.80;;;;;;;;;;10539449;28;20020;-83
2023/07/13 21:19:04;;;;;;;11.13;8.13;;;;;;;;;;10545007;28;20042;-83
2023/07/13 21:24:08;;;;;;;11.82;8.55;;;;;;;;;;10562081;28;20042;-83
2023/07/13 21:29:09;;;;;;;12.82;9.00;;;;;;;;;;10527150;28;20540;-84
2023/07/13 21:34:15;;;;;;;14.20;9.90;;;;;;;;;;10538084;28;20032;-83
2023/07/13 21:39:18;;;;;;;13.77;9.70;;;;;;;;;;10540736;28;20032;-83
2023/07/13 21:44:22;;;;;;;13.57;10.38;;;;;;;;;;10545407;28;20088;-83
2023/07/13 21:49:23;;;;;;;17.92;11.60;;;;;;;;;;10547694;28;20079;-83
2023/07/13 21:54:24;;;;;;;13.35;10.57;;;;;;;;;;10543407;28;20020;-83
2023/07/13 21:59:27;;;;;;;17.10;10.63;;;;;;;;;;10529170;28;20038;-83
2023/07/13 22:04:29;;;;;;;19.77;12.98;;;;;;;;;;10535480;28;20557;-83
2023/07/13 22:09:30;;;;;;;19.10;12.80;;;;;;;;;;10560902;27;20078;-83
2023/07/13 22:14:31;;;;;;;17.02;12.00;;;;;;;;;;10530363;28;20031;-83
2023/07/13 22:19:32;;;;;;;20.80;13.10;;;;;;;;;;10544756;28;20480;-83
2023/07/13 22:24:34;;;;;;;19.05;14.07;;;;;;;;;;10535930;28;20508;-84
2023/07/13 22:29:35;;;;;;;25.85;16.90;;;;;;;;;;10549957;28;20036;-83
2023/07/13 22:34:36;;;;;;;22.30;15.65;;;;;;;;;;10541156;28;20523;-83
2023/07/13 22:39:37;;;;;;;25.58;17.70;;;;;;;;;;10551358;28;20072;-83
2023/07/13 22:44:38;;;;;;;22.83;14.75;;;;;;;;;;10552837;28;20039;-84
2023/07/13 22:49:39;;;;;;;24.00;16.02;;;;;;;;;;10549416;28;20595;-84
2023/07/13 22:54:40;;;;;;;19.85;14.77;;;;;;;;;;10537081;28;20036;-83
2023/07/13 22:59:41;;;;;;;23.35;14.88;;;;;;;;;;10552092;28;20036;-83
2023/07/13 23:04:43;;;;;;;21.08;15.60;;;;;;;;;;10543099;28;20028;-82
2023/07/13 23:09:45;;;;;;;18.90;13.35;;;;;;;;;;10554945;28;20486;-83
2023/07/13 23:14:46;;;;;;;20.58;13.80;;;;;;;;;;10538445;28;20028;-83
2023/07/13 23:19:47;;;;;;;20.38;13.70;;;;;;;;;;10547889;28;20514;-82
2023/07/13 23:24:48;;;;;;;25.80;15.35;;;;;;;;;;10529898;28;20032;-82
2023/07/13 23:29:49;;;;;;;19.48;14.18;;;;;;;;;;10547352;28;20089;-83
2023/07/13 23:34:50;;;;;;;17.55;12.90;;;;;;;;;;10537576;28;20128;-83
2023/07/13 23:39:51;;;;;;;27.75;17.70;;;;;;;;;;10553848;28;20036;-83
2023/07/13 23:44:52;;;;;;;28.35;17.55;;;;;;;;;;10539043;28;20032;-82
2023/07/13 23:49:55;;;;;;;24.52;16.38;;;;;;;;;;10549776;28;20048;-82
2023/07/13 23:54:56;;;;;;;23.95;15.98;;;;;;;;;;10575135;28;20487;-82
2023/07/13 23:59:57;;;;;;;28.45;18.50;;;;;;;;;;10549478;28;20028;-83
